• Join FlightAware (Why Join?)
  • Login
  • US Flag 
12:26PM EDT


 

Airport Tracker/Info


-or-


 

Live Flight TrackerFlight Track Log ✈ CHQ6384 ✈ 26-Jul-2013 ✈ CYYG - KJFK

Flight Track Log - Related Links

Times and Time Zones

All times are in EDT time to prevent confusion due to time zone crossing. See the CHQ6384 flight status page for this flight to view local times or setup timezone preferences in your user account.

Time Position Orientation Groundspeed Altitude Reporting Facility
EDT Latitude Longitude Course Direction KTS MPH feet Rate Location/Type
06:17AM 46.3000 -63.1167 265° West 100 115 1,400  Level Moncton Center
06:18AM 46.3167 -63.1833 290° West 220 253 3,200 2,040 Climbing Moncton Center
06:19AM 46.3000 -63.3000 258° West 260 299 5,500 2,700 Climbing Moncton Center
06:20AM 46.2500 -63.6693 270° West  Level FlightAware Approximate
06:20AM 46.2833 -63.4000 256° West 250 288 8,600  Level Moncton Center
06:21AM 46.2429 -63.8080 265° West  Level FlightAware Approximate
06:21AM 46.2833 -63.5000 270° West 240 276 10,600  Level Moncton Center
06:22AM 46.2336 -63.9465 265° West  Level FlightAware Approximate
06:22AM 46.2667 -63.6000 256° West 260 299 12,300  Level Moncton Center
06:23AM 46.2667 -63.7167 270° West 280 322 13,800 1,440 Climbing Moncton Center
06:24AM 46.2667 -63.8167 270° West 290 334 15,200 1,500 Climbing Moncton Center
06:25AM 46.2500 -63.9667 261° West 300 345 16,800 1,380 Climbing Moncton Center
06:26AM 46.2333 -64.0833 258° West 310 357 18,000 1,320 Climbing Moncton Center
06:27AM 46.2167 -64.2000 258° West 310 357 19,500 1,380 Climbing Moncton Center
06:28AM 46.2000 -64.3167 258° West 310 357 20,800 1,260 Climbing Moncton Center
06:29AM 46.2000 -64.4667 270° West 320 368 22,100 1,200 Climbing Moncton Center
06:30AM 46.1833 -64.5833 258° West 320 368 23,300 1,080 Climbing Moncton Center
06:31AM 46.1667 -64.7167 260° West 310 357 24,300 960 Climbing Moncton Center
06:32AM 46.1500 -64.8333 258° West 320 368 25,300 960 Climbing Moncton Center
06:33AM 46.1167 -64.9833 252° West 330 380 26,300 900 Climbing Moncton Center
06:34AM 46.0833 -65.1000 248° West 330 380 27,200 960 Climbing Moncton Center
06:35AM 46.0667 -65.2333 260° West 340 391 28,300 960 Climbing Moncton Center
06:36AM 46.0500 -65.3667 260° West 340 391 29,200 900 Climbing Moncton Center
06:37AM 46.0333 -65.5000 260° West 340 391 30,200 900 Climbing Moncton Center
06:38AM 46.0000 -65.6333 250° West 350 403 31,100 900 Climbing Moncton Center
06:39AM 45.9833 -65.7667 260° West 350 403 32,000 420 Climbing Moncton Center
06:40AM 45.9667 -65.9167 261° West 360 414 32,000  Level Moncton Center
06:41AM 45.9500 -66.0500 260° West 380 437 32,000  Level Moncton Center
06:42AM 45.9167 -66.2000 252° West 370 426 32,000  Level Moncton Center
06:43AM 45.9000 -66.3500 261° West 370 426 32,000  Level Moncton Center
06:44AM 45.8500 -66.4833 242° Southwest 370 426 32,000  Level Moncton Center
06:45AM 45.8000 -66.6000 238° Southwest 370 426 32,000  Level Moncton Center
06:46AM 45.7500 -66.7500 245° Southwest 370 426 32,000  Level Moncton Center
06:47AM 45.7000 -66.8667 238° Southwest 370 426 32,000  Level Moncton Center
06:48AM 45.6500 -67.0000 242° Southwest 370 426 32,000  Level Moncton Center
06:49AM 45.6000 -67.1167 239° Southwest 380 437 32,000  Level Moncton Center
06:50AM 45.5167 -67.2667 232° Southwest 380 437 32,000  Level Moncton Center
06:51AM 45.4500 -67.3833 231° Southwest 390 449 32,000  Level Moncton Center
06:52AM 45.3833 -67.4667 221° Southwest 390 449 32,000  Level Moncton Center
06:53AM 45.3172 -67.6192 238° Southwest 394 453 32,000  Level Boston Center
06:54AM 45.2333 -67.7167 219° Southwest 390 449 32,000  Level Moncton Center
06:55AM 45.1667 -67.8333 231° Southwest 400 460 32,000  Level Moncton Center
06:56AM 45.0833 -67.9500 225° Southwest 390 449 32,000  Level Moncton Center
06:57AM 45.0167 -68.0667 231° Southwest 390 449 32,000  Level Moncton Center
06:58AM 44.9333 -68.1833 225° Southwest 390 449 32,000  Level Moncton Center
06:59AM 44.8500 -68.2667 215° Southwest 390 449 32,000  Level Moncton Center
07:00AM 44.7833 -68.3833 231° Southwest 390 449 32,000  Level Moncton Center
07:01AM 44.7000 -68.4833 220° Southwest 400 460 32,000  Level Moncton Center
07:02AM 44.6333 -68.6000 231° Southwest 390 449 32,000  Level Moncton Center
07:03AM 44.5333 -68.6833 211° Southwest 390 449 32,000  Level Moncton Center
07:04AM 44.4500 -68.8000 225° Southwest 390 449 32,000  Level Moncton Center
07:05AM 44.3767 -68.9311 232° Southwest 394 453 32,000  Level Boston Center
07:06AM 44.2903 -69.0436 223° Southwest 394 453 32,000  Level Boston Center
07:07AM 44.2161 -69.1436 224° Southwest 387 445 32,000  Level Boston Center
07:08AM 44.1378 -69.2433 222° Southwest 387 445 32,000  Level Boston Center
07:09AM 44.0611 -69.3428 223° Southwest 382 440 32,000  Level Boston Center
07:10AM 43.9886 -69.4389 224° Southwest 382 440 32,000  Level Boston Center
07:11AM 43.9142 -69.5378 224° Southwest 382 440 32,000  Level Boston Center
07:12AM 43.8394 -69.6306 222° Southwest 382 440 32,000  Level Boston Center
07:13AM 43.7625 -69.7261 222° Southwest 382 440 32,000  Level Boston Center
07:14AM 43.6875 -69.8214 223° Southwest 382 440 32,000  Level Boston Center
07:15AM 43.6125 -69.9164 223° Southwest 377 434 32,000  Level Boston Center
07:16AM 43.5375 -70.0142 223° Southwest 377 434 32,000  Level Boston Center
07:17AM 43.4667 -70.1086 224° Southwest 377 434 32,000  Level Boston Center
07:18AM 43.3914 -70.2058 223° Southwest 372 428 32,000  Level Boston Center
07:19AM 43.3139 -70.2969 221° Southwest 372 428 32,000  Level Boston Center
07:20AM 43.2386 -70.3936 223° Southwest 372 428 32,000  Level Boston Center
07:21AM 43.1567 -70.4761 216° Southwest 377 434 32,000  Level Boston Center
07:22AM 43.0661 -70.5503 211° Southwest 377 434 32,000  Level Boston Center
07:23AM 42.9797 -70.6208 211° Southwest 372 428 32,000  Level Boston Center
07:24AM 42.8892 -70.6917 210° Southwest 372 428 32,000  Level Boston Center
07:25AM 42.8192 -70.7475 210° Southwest 372 428 32,000  Level Boston Center
07:26AM 42.7081 -70.8353 210° Southwest 372 428 32,000  Level Boston Center
07:27AM 42.6192 -70.9025 209° Southwest 372 428 32,000  Level Boston Center
07:28AM 42.5306 -70.9722 210° Southwest 372 428 32,000  Level Boston Center
07:29AM 42.4378 -71.0475 211° Southwest 377 434 32,000  Level Boston Center
07:30AM 42.3469 -71.1197 210° Southwest 377 434 32,000 -60 Level Boston Center
07:32AM 42.1833 -71.2167 204° Southwest 380 437 31,900  Descending Moncton Center
07:33AM 42.1297 -71.2867 224° Southwest 372 428 32,000  Climbing Boston Center
07:34AM 42.0492 -71.3497 210° Southwest 377 434 32,000 -60 Level Boston Center
07:35AM 41.9581 -71.4183 209° Southwest 377 434 31,900 -540 Descending Boston Center
07:36AM 41.8669 -71.4894 210° Southwest 372 428 31,000 -960 Descending Boston Center
07:37AM 41.7717 -71.5606 209° Southwest 378 435 30,000 -960 Descending Boston Center
07:38AM 41.6764 -71.6258 207° Southwest 383 441 29,100 -1,080 Descending Boston Center
07:39AM 41.5769 -71.7019 210° Southwest 383 441 27,900 -1,320 Descending Boston Center
07:40AM 41.4836 -71.7722 209° Southwest 383 441 26,500 -1,500 Descending Boston Center
07:41AM 41.3881 -71.8425 209° Southwest 389 448 25,000 -1,260 Descending Boston Center
07:42AM 41.2883 -71.9181 210° Southwest 395 455 24,000 -720 Descending Boston Center
07:43AM 41.1992 -72.0097 218° Southwest 407 468 23,600 -1,080 Descending Boston Center
07:44AM 41.1142 -72.1122 222° Southwest 413 475 21,900 -1,980 Descending Boston Center
07:45AM 41.0706 -72.2336 245° Southwest 386 444 19,700 -2,580 Descending Boston Center
07:46AM 41.0394 -72.3519 251° West 366 421 16,800 -2,700 Descending Boston Center
07:47AM 41.0125 -72.4731 254° West 360 414 14,400 -2,280 Descending Boston Center
07:48AM 40.9853 -72.5775 251° West 343 395 12,300 -1,200 Descending Boston Center
07:49AM 40.9581 -72.6983 253° West 338 389 12,000 -180 Descending Boston Center
07:50AM 40.9333 -72.8000 252° West 318 366 12,000  Level New York TRACON
07:51AM 40.8500 -72.8833 217° Southwest 313 360 12,000  Level New York TRACON
07:52AM 40.7833 -72.9333 210° Southwest 314 361 12,000 -780 Level New York TRACON
07:53AM 40.7167 -73.0000 217° Southwest 302 348 10,600 -1,560 Descending New York TRACON
07:54AM 40.6833 -73.0833 242° Southwest 281 323 8,900 -1,740 Descending New York TRACON
07:55AM 40.6667 -73.1833 258° West 269 310 7,200 -1,800 Descending New York TRACON
07:56AM 40.6333 -73.2667 242° Southwest 263 303 5,400 -1,620 Descending New York TRACON
07:57AM 40.6000 -73.3500 242° Southwest 268 308 4,000 -1,200 Descending New York TRACON
07:58AM 40.5667 -73.4333 242° Southwest 251 289 3,100 -540 Descending New York TRACON
07:59AM 40.5667 -73.5333 270° West 250 288 3,000 -120 Descending New York TRACON
08:00AM 40.5667 -73.6000 270° West 181 208 2,900 -120 Descending New York TRACON